메인 페이지
METAR-TAF:

METAR-TAF

공항 :

마르델플라타, 아르헨티나

위도: 37-56S, 경도: 057-35W, 고도: 18m

현재 날씨관측

예보는 56분 전, 18:00시(UTC)에 발표되었습니다.
6kt
온도 26°C
습도 48%
기압 1016 hPa
시정 10km 이상
고도 4500ft 상공 구름 조금
고도 20000ft 상공 구름 많음

METAR: SAZM 161800Z 36006KT 9999 FEW045 BKN200 26/14 Q1016

시각: 15:56 (18:56 UTC)

예보

예보는 1 시간 56분 전, 17:00시(UTC)에 발표되었습니다.
예보 대상 시간: 16일 18시부터 17일 18시까지 (UTC)
북북서10kt
시정 10km 이상
고도 3000ft 상공 구름 보통
전환 중
16일 19시부터 16일 21시까지 (UTC)
북동15kt, 순간 최대 풍속 25kt
전환 중
17일 04시부터 17일 06시까지 (UTC)
5kt
시정: 8000m
고도 1500ft 상공 구름 보통
확률 40%
17일 07시부터 17일 11시까지 (UTC)
북북서3kt
시정: 0600m
고도 800ft 상공 구름 많음
안개
전환 중
17일 12시부터 17일 14시까지 (UTC)
북북서10kt
시정 10km 이상
고도 1800ft 상공 구름 보통
고도 10000ft 상공 구름 많음

TAF: SAZM 161700Z 1618/1718 34010KT 9999 SCT030 TX28/1718Z TN17/1709Z BECMG 1619/1621 04015G25KT BECMG 1704/1706 36005KT 8000 SCT015 PROB40 1707/1711 34003KT 0600 FG BKN008 BECMG 1712/1714 34010KT 9999 SCT018 BKN100

4,000개 이상의 공항 관측 자료 및 예보 (METAR 및 TAF 보고).

지도상에서 검색 가능한 기상관측소가 노란 점과 빨간 점으로 표시되어 있습니다.

기상관측소 명을 보려면 표시 위로 마우스를 이동하세요.

날씨 관측과 예보를 보려면 클릭하세요.

지도 변경 : 확대하려면 엑스 표시가 있는 녹색 버튼, 축소하려면 빼기 표시가 있는 녹색 버튼, 다음 페이지의 지도를 보려면 녹색 화살표를 클릭하세요.


METAR-TAF: